Time;durP1;ratioP1;P1;durP2;ratioP2;P2;SDS_P1;SDS_P2;PMS_P1;PMS_P2;Temp;Humidity;BMP_temperature;BMP_pressure;BME280_temperature;BME280_humidity;BME280_pressure;Samples;Min_cycle;Max_cycle;Signal;HPM_P1;HPM_P2
2021/06/26 04:01:03;;;;;;;12.20;11.40;;;15.00;99.90;;;;;;5738341;22;20977;-69
2021/06/26 04:03:30;;;;;;;13.60;12.53;;;15.10;99.90;;;;;;4970655;28;20471;-68
2021/06/26 04:05:56;;;;;;;14.30;12.93;;;15.20;99.90;;;;;;4973079;28;20469;-69
2021/06/26 04:08:23;;;;;;;13.40;12.43;;;15.30;99.90;;;;;;4973971;28;20464;-69
2021/06/26 04:10:50;;;;;;;13.23;12.27;;;15.40;99.90;;;;;;4974420;28;20499;-69
2021/06/26 04:13:17;;;;;;;12.83;11.87;;;15.50;99.90;;;;;;4970996;28;20487;-69
2021/06/26 04:15:43;;;;;;;13.00;12.07;;;15.60;99.90;;;;;;4967870;28;20465;-69
2021/06/26 04:18:11;;;;;;;13.30;12.50;;;15.60;99.90;;;;;;4955734;29;20473;-69
2021/06/26 04:20:38;;;;;;;13.60;12.70;;;15.70;99.90;;;;;;4961824;28;20538;-69
2021/06/26 04:23:05;;;;;;;12.63;11.70;;;15.70;99.90;;;;;;4967489;28;20976;-69
2021/06/26 04:25:31;;;;;;;12.00;11.20;;;16.00;99.90;;;;;;4966578;28;20459;-69
2021/06/26 04:28:06;;;;;;;11.27;10.60;;;16.60;99.90;;;;;;4974123;28;20773;-69
2021/06/26 04:30:33;;;;;;;10.17;9.67;;;17.40;99.90;;;;;;4965254;28;20484;-68
2021/06/26 04:33:01;;;;;;;10.80;10.20;;;18.00;99.90;;;;;;4961619;28;20922;-68
2021/06/26 04:35:29;;;;;;;10.80;10.10;;;18.60;99.90;;;;;;4958498;28;20866;-68
2021/06/26 04:37:56;;;;;;;9.93;9.43;;;19.30;99.90;;;;;;4974315;28;20463;-68
2021/06/26 04:40:23;;;;;;;10.53;9.93;;;19.90;99.90;;;;;;4962615;28;20469;-68
2021/06/26 04:42:50;;;;;;;10.53;9.93;;;20.40;99.90;;;;;;4969352;28;20460;-68
2021/06/26 04:45:16;;;;;;;10.50;10.00;;;20.50;99.90;;;;;;4965427;28;20834;-67
2021/06/26 04:47:44;;;;;;;11.67;11.07;;;20.20;99.90;;;;;;4954724;29;20975;-69
2021/06/26 04:50:12;;;;;;;11.63;10.93;;;19.90;99.90;;;;;;4967417;28;20799;-68
2021/06/26 04:52:41;;;;;;;11.10;10.60;;;19.60;99.90;;;;;;4959297;28;20853;-69
2021/06/26 04:55:09;;;;;;;11.00;10.50;;;19.70;99.90;;;;;;4959985;28;20815;-68
2021/06/26 04:57:36;;;;;;;11.03;10.47;;;19.90;99.90;;;;;;4964392;28;20463;-68
2021/06/26 05:00:04;;;;;;;11.80;11.00;;;19.60;99.90;;;;;;4959144;28;20469;-69
2021/06/26 05:02:30;;;;;;;12.47;11.87;;;19.50;99.90;;;;;;4970846;28;20491;-69
2021/06/26 05:04:57;;;;;;;11.87;11.17;;;19.50;99.90;;;;;;4962897;28;20952;-70
2021/06/26 05:07:24;;;;;;;12.03;11.33;;;19.50;99.90;;;;;;4954488;28;20940;-69
2021/06/26 05:09:52;;;;;;;12.43;11.73;;;19.40;99.90;;;;;;4961245;28;20461;-70
2021/06/26 05:12:19;;;;;;;12.63;11.93;;;19.30;99.90;;;;;;4954205;29;20497;-69
2021/06/26 05:14:45;;;;;;;12.80;12.10;;;19.10;99.90;;;;;;4955410;28;20475;-69
2021/06/26 05:17:12;;;;;;;11.60;10.90;;;19.00;99.90;;;;;;4954694;28;20468;-69
2021/06/26 05:19:39;;;;;;;13.47;12.67;;;18.90;99.90;;;;;;4960516;28;20473;-69
2021/06/26 05:22:05;;;;;;;11.87;11.00;;;18.90;99.90;;;;;;4959605;28;20608;-68
2021/06/26 05:24:32;;;;;;;10.87;10.27;;;19.70;99.90;;;;;;4958286;28;20480;-68
2021/06/26 05:27:00;;;;;;;10.63;10.13;;;20.70;99.90;;;;;;4958615;28;20787;-69
2021/06/26 05:29:27;;;;;;;10.90;10.20;;;21.60;99.90;;;;;;4973089;28;20944;-69
2021/06/26 05:31:53;;;;;;;10.23;9.77;;;22.70;99.90;;;;;;4955357;28;20487;-68
2021/06/26 05:34:20;;;;;;;10.10;9.60;;;23.40;99.90;;;;;;4963444;28;20957;-69
2021/06/26 05:36:47;;;;;;;9.70;9.30;;;24.00;99.90;;;;;;4970504;28;20474;-68
2021/06/26 05:39:13;;;;;;;9.87;9.47;;;24.00;99.90;;;;;;4969149;28;20540;-67
2021/06/26 05:41:40;;;;;;;9.17;8.67;;;23.70;99.90;;;;;;4955122;28;20502;-67
2021/06/26 05:44:08;;;;;;;9.70;9.30;;;23.30;99.90;;;;;;4961359;28;20467;-66
2021/06/26 05:46:35;;;;;;;10.13;9.40;;;23.00;99.90;;;;;;4969616;28;20577;-67
2021/06/26 05:49:02;;;;;;;10.07;9.67;;;23.00;99.90;;;;;;4954570;28;20617;-67
2021/06/26 05:51:28;;;;;;;10.70;10.07;;;23.00;99.90;;;;;;4972594;28;20858;-68
2021/06/26 05:53:55;;;;;;;10.23;9.80;;;23.40;99.90;;;;;;4958390;28;21142;-70
2021/06/26 05:56:22;;;;;;;10.40;9.90;;;23.20;99.90;;;;;;4965578;28;20483;-68
2021/06/26 05:58:49;;;;;;;10.27;9.77;;;23.20;99.90;;;;;;4972173;28;20468;-67
2021/06/26 06:01:17;;;;;;;11.00;10.30;;;22.90;99.90;;;;;;4965060;28;20499;-68
2021/06/26 06:03:44;;;;;;;10.87;10.27;;;22.90;99.90;;;;;;4961662;28;20459;-68
2021/06/26 06:06:11;;;;;;;10.70;10.10;;;22.80;99.90;;;;;;4961723;28;20471;-68
2021/06/26 06:08:38;;;;;;;10.67;10.20;;;22.70;99.90;;;;;;4965042;28;20787;-69
2021/06/26 06:11:04;;;;;;;10.00;9.30;;;22.90;99.90;;;;;;4979794;28;20492;-68
2021/06/26 06:13:32;;;;;;;10.87;10.13;;;23.20;99.90;;;;;;4973891;28;20842;-69
2021/06/26 06:15:59;;;;;;;10.93;10.20;;;23.70;99.90;;;;;;4969369;28;20483;-70
2021/06/26 06:18:27;;;;;;;9.93;9.43;;;23.70;99.90;;;;;;4971520;28;20492;-68
2021/06/26 06:20:54;;;;;;;8.97;8.57;;;24.10;99.90;;;;;;4963558;28;20504;-68
2021/06/26 06:23:20;;;;;;;10.23;9.43;;;25.00;99.90;;;;;;4975564;28;20540;-68
2021/06/26 06:25:47;;;;;;;7.73;7.43;;;26.00;99.90;;;;;;4961782;28;20460;-69
2021/06/26 06:28:14;;;;;;;8.43;8.03;;;26.80;99.90;;;;;;4969703;28;20912;-68
2021/06/26 06:30:40;;;;;;;8.03;7.63;;;27.40;99.80;;;;;;4967019;28;20602;-69
2021/06/26 06:33:07;;;;;;;7.67;7.30;;;27.40;99.50;;;;;;4946034;28;20581;-69
2021/06/26 06:35:35;;;;;;;8.37;8.07;;;27.80;98.10;;;;;;4958043;28;20821;-68
2021/06/26 06:38:02;;;;;;;7.77;7.37;;;28.20;97.90;;;;;;4959238;28;20480;-68
2021/06/26 06:40:29;;;;;;;6.80;6.60;;;27.90;96.80;;;;;;4970952;28;21019;-67
2021/06/26 06:42:56;;;;;;;7.13;6.93;;;27.80;97.20;;;;;;4965457;28;20467;-67
2021/06/26 06:45:23;;;;;;;6.57;6.37;;;27.10;96.50;;;;;;4960392;28;20463;-68
2021/06/26 06:47:50;;;;;;;6.70;6.50;;;26.70;97.30;;;;;;4971992;28;20462;-67
2021/06/26 06:50:17;;;;;;;7.33;7.00;;;26.40;97.40;;;;;;4959881;28;20469;-69
2021/06/26 06:52:45;;;;;;;6.87;6.57;;;25.90;96.90;;;;;;4957011;29;20490;-66
2021/06/26 06:55:12;;;;;;;6.53;6.33;;;25.80;96.90;;;;;;4975558;28;20471;-67
2021/06/26 06:57:39;;;;;;;7.20;6.90;;;25.40;97.10;;;;;;4976116;28;20463;-66
2021/06/26 07:00:07;;;;;;;6.57;6.37;;;25.00;97.20;;;;;;4977127;28;20560;-67
2021/06/26 07:02:33;;;;;;;7.27;6.90;;;24.50;97.60;;;;;;4975996;28;20491;-65
2021/06/26 07:05:00;;;;;;;6.90;6.50;;;24.20;99.50;;;;;;4959541;28;20456;-64
2021/06/26 07:07:27;;;;;;;6.53;6.23;;;23.90;97.60;;;;;;4967806;28;20836;-64
2021/06/26 07:09:55;;;;;;;7.27;6.87;;;23.70;97.90;;;;;;4961154;28;20468;-64
2021/06/26 07:12:21;;;;;;;7.30;6.90;;;23.60;97.20;;;;;;4966876;28;20483;-64
2021/06/26 07:14:48;;;;;;;6.90;6.50;;;23.40;98.90;;;;;;4960180;28;20788;-65
2021/06/26 07:17:15;;;;;;;6.87;6.47;;;23.30;98.70;;;;;;4957671;28;20460;-65
2021/06/26 07:19:41;;;;;;;6.67;6.27;;;23.30;97.80;;;;;;4957191;28;20467;-64
2021/06/26 07:22:08;;;;;;;6.33;5.80;;;23.40;98.20;;;;;;4952654;28;20494;-64
2021/06/26 07:24:35;;;;;;;6.70;6.40;;;23.50;98.60;;;;;;4963648;28;20468;-64
2021/06/26 07:27:04;;;;;;;6.20;5.90;;;23.60;96.90;;;;;;4968072;28;20813;-64
2021/06/26 07:29:30;;;;;;;6.03;5.73;;;23.60;96.20;;;;;;4957138;28;20483;-65
2021/06/26 07:31:57;;;;;;;6.53;6.23;;;23.60;95.30;;;;;;4970587;28;20514;-67
2021/06/26 07:34:24;;;;;;;5.70;5.40;;;23.80;95.80;;;;;;4967089;28;20491;-65
2021/06/26 07:36:50;;;;;;;5.70;5.30;;;24.60;95.80;;;;;;4959970;28;20464;-66
2021/06/26 07:39:17;;;;;;;5.10;5.00;;;25.00;95.40;;;;;;4975065;28;20821;-65
2021/06/26 07:41:44;;;;;;;4.33;4.23;;;25.30;94.00;;;;;;4970383;28;20489;-65
2021/06/26 07:44:12;;;;;;;7.80;7.40;;;25.40;94.20;;;;;;4956106;29;20471;-65
2021/06/26 07:46:38;;;;;;;6.70;6.40;;;25.50;95.10;;;;;;4971692;28;20465;-66
2021/06/26 07:49:05;;;;;;;5.60;5.50;;;25.80;95.70;;;;;;4956100;29;20759;-65
2021/06/26 07:51:32;;;;;;;5.90;5.80;;;25.80;95.50;;;;;;4966181;28;20492;-66
2021/06/26 07:53:58;;;;;;;5.47;5.37;;;26.30;95.20;;;;;;4970340;28;20493;-65
2021/06/26 07:56:26;;;;;;;5.40;5.20;;;26.80;94.00;;;;;;4955664;29;20579;-66
2021/06/26 07:58:52;;;;;;;6.03;5.83;;;27.10;93.30;;;;;;4969804;28;21010;-65
2021/06/26 08:01:20;;;;;;;4.80;4.70;;;26.90;91.50;;;;;;4955865;29;20528;-64
2021/06/26 08:03:47;;;;;;;5.87;5.70;;;26.60;93.60;;;;;;4960431;28;20463;-67
2021/06/26 08:06:14;;;;;;;6.50;6.20;;;26.40;95.10;;;;;;4969983;28;20475;-67
2021/06/26 08:08:40;;;;;;;5.50;5.40;;;25.90;93.70;;;;;;4968957;28;20467;-67
2021/06/26 08:11:07;;;;;;;7.23;6.70;;;25.90;94.10;;;;;;4971244;28;20483;-66
2021/06/26 08:13:34;;;;;;;6.30;6.00;;;26.30;96.20;;;;;;4959692;28;20885;-67
2021/06/26 08:16:00;;;;;;;6.03;5.83;;;26.10;96.30;;;;;;4957435;28;20475;-67
2021/06/26 08:18:28;;;;;;;6.60;6.17;;;25.30;95.10;;;;;;4963808;28;20493;-67
2021/06/26 08:20:55;;;;;;;6.90;6.40;;;25.10;97.00;;;;;;4955834;28;20485;-67
2021/06/26 08:23:22;;;;;;;7.87;7.47;;;24.90;96.30;;;;;;4967935;28;20457;-67
2021/06/26 08:25:48;;;;;;;6.77;6.37;;;25.00;97.70;;;;;;4975117;28;20524;-68
2021/06/26 08:28:15;;;;;;;6.83;6.53;;;25.10;97.90;;;;;;4962799;28;20468;-67
2021/06/26 08:30:42;;;;;;;6.27;6.07;;;25.40;97.70;;;;;;4974754;28;20486;-67
2021/06/26 08:33:08;;;;;;;7.37;6.97;;;25.50;97.50;;;;;;4962758;28;20483;-67
2021/06/26 08:35:36;;;;;;;6.33;6.13;;;25.70;96.90;;;;;;4955573;29;20500;-67
2021/06/26 08:38:03;;;;;;;6.13;5.90;;;25.60;96.90;;;;;;4961055;28;20462;-68
2021/06/26 08:40:30;;;;;;;6.73;6.47;;;25.40;97.10;;;;;;4974326;28;20490;-65
2021/06/26 08:42:56;;;;;;;6.60;6.20;;;25.30;95.70;;;;;;4960074;28;20469;-65
2021/06/26 08:45:23;;;;;;;6.10;5.90;;;25.80;96.30;;;;;;4970980;28;20473;-65
2021/06/26 08:47:51;;;;;;;6.47;6.17;;;26.70;95.00;;;;;;4953849;28;20476;-65
2021/06/26 08:50:20;;;;;;;6.50;6.20;;;27.20;94.20;;;;;;4954485;28;20457;-67
2021/06/26 08:52:48;;;;;;;6.87;6.50;;;27.90;93.30;;;;;;4962667;28;20458;-65
2021/06/26 08:55:15;;;;;;;7.10;6.70;;;28.40;92.40;;;;;;4961741;28;20480;-65
2021/06/26 08:57:44;;;;;;;6.90;6.50;;;28.70;91.40;;;;;;4953826;28;20473;-66
2021/06/26 09:00:13;;;;;;;8.00;7.60;;;28.40;91.10;;;;;;4951715;28;20467;-66
2021/06/26 09:02:40;;;;;;;6.40;6.10;;;27.90;92.20;;;;;;4957423;28;20470;-64
2021/06/26 09:05:08;;;;;;;6.60;6.30;;;28.40;91.80;;;;;;4973414;28;20545;-64
2021/06/26 09:07:36;;;;;;;7.70;7.20;;;28.60;91.30;;;;;;4964974;28;20468;-64
2021/06/26 09:10:16;;;;;;;6.90;6.50;;;28.50;90.60;;;;;;4960044;28;20546;-64
2021/06/26 09:12:43;;;;;;;7.20;6.90;;;28.50;91.40;;;;;;4962536;28;20494;-64
2021/06/26 09:15:20;;;;;;;7.33;7.00;;;28.50;90.80;;;;;;4970256;28;20487;-64
2021/06/26 09:17:48;;;;;;;7.87;7.30;;;28.20;91.00;;;;;;4955668;28;20448;-64
2021/06/26 09:20:15;;;;;;;7.53;7.17;;;27.80;91.20;;;;;;4954003;28;20466;-65
2021/06/26 09:22:44;;;;;;;7.17;6.87;;;27.00;91.50;;;;;;4963612;28;20468;-64
2021/06/26 09:25:25;;;;;;;7.87;7.30;;;26.40;92.50;;;;;;4959269;28;20490;-64
2021/06/26 09:27:53;;;;;;;6.90;6.60;;;25.80;92.70;;;;;;4955537;28;20550;-63
2021/06/26 09:30:32;;;;;;;7.97;7.53;;;25.60;94.40;;;;;;4959933;28;20842;-65
2021/06/26 09:33:03;;;;;;;7.90;7.33;;;25.80;93.80;;;;;;4971967;28;20465;-64
2021/06/26 09:35:29;;;;;;;8.93;8.33;;;25.80;93.80;;;;;;4966994;28;20449;-64
2021/06/26 09:37:57;;;;;;;8.50;8.00;;;25.60;93.50;;;;;;4968875;28;20459;-65
2021/06/26 09:40:28;;;;;;;8.70;8.20;;;25.30;93.60;;;;;;4955190;28;20481;-63
2021/06/26 09:42:55;;;;;;;8.70;8.13;;;25.30;94.30;;;;;;4962116;28;20581;-64
2021/06/26 09:45:22;;;;;;;10.00;9.23;;;25.50;94.10;;;;;;4966717;28;20459;-65
2021/06/26 09:47:48;;;;;;;8.43;7.93;;;25.80;93.20;;;;;;4963104;28;20469;-65
2021/06/26 09:50:16;;;;;;;9.03;8.43;;;26.30;93.70;;;;;;4963630;28;20463;-65
2021/06/26 09:52:46;;;;;;;8.10;7.60;;;26.90;93.00;;;;;;4962262;28;20466;-65
2021/06/26 09:55:21;;;;;;;9.73;8.00;;;26.90;91.10;;;;;;4960514;28;20526;-64
2021/06/26 09:57:51;;;;;;;8.83;8.13;;;26.60;91.90;;;;;;4972877;28;20468;-64
2021/06/26 10:00:20;;;;;;;8.77;7.97;;;26.40;91.90;;;;;;4968592;28;20478;-64
2021/06/26 10:02:47;;;;;;;7.80;7.27;;;26.10;91.70;;;;;;4958123;28;20475;-64
2021/06/26 10:05:15;;;;;;;19.70;8.20;;;26.00;92.30;;;;;;4961637;28;20463;-67
2021/06/26 10:07:43;;;;;;;7.87;7.57;;;26.00;93.40;;;;;;4959654;28;20466;-67
2021/06/26 10:10:12;;;;;;;10.33;7.80;;;26.00;93.80;;;;;;4954490;28;20559;-66
2021/06/26 10:12:39;;;;;;;16.33;8.00;;;26.00;91.30;;;;;;4940903;28;20479;-66
2021/06/26 10:15:09;;;;;;;9.80;8.80;;;26.10;91.80;;;;;;4960957;28;20542;-67
2021/06/26 10:17:36;;;;;;;11.10;9.23;;;26.30;91.10;;;;;;4968746;28;20475;-67
2021/06/26 10:20:04;;;;;;;8.40;7.80;;;26.50;91.40;;;;;;4953493;28;20463;-66
2021/06/26 10:22:31;;;;;;;42.77;12.67;;;26.40;90.90;;;;;;4956102;28;20467;-67
2021/06/26 10:25:01;;;;;;;11.27;9.13;;;26.50;91.50;;;;;;4962358;28;20465;-69
2021/06/26 10:27:28;;;;;;;8.50;7.90;;;26.40;90.90;;;;;;4967416;28;20469;-67
2021/06/26 10:29:54;;;;;;;25.23;8.93;;;26.50;92.10;;;;;;4954562;28;20459;-67
2021/06/26 10:32:22;;;;;;;7.33;6.87;;;26.70;92.30;;;;;;4960161;28;20501;-68
2021/06/26 10:34:50;;;;;;;8.53;7.90;;;26.80;93.40;;;;;;4971629;28;20816;-68
2021/06/26 10:37:19;;;;;;;8.13;7.60;;;26.70;92.90;;;;;;4965842;28;20559;-67
2021/06/26 10:39:47;;;;;;;8.98;7.55;;;26.60;92.70;;;;;;4971010;28;20466;-67
2021/06/26 10:42:18;;;;;;;6.87;6.57;;;26.50;93.60;;;;;;4958246;28;20257;-67
2021/06/26 10:44:48;;;;;;;7.70;7.17;;;26.50;93.50;;;;;;4954994;28;20466;-67
2021/06/26 10:47:17;;;;;;;8.53;8.00;;;26.30;93.70;;;;;;4968313;28;20624;-67
2021/06/26 10:49:46;;;;;;;7.53;7.10;;;26.10;93.60;;;;;;4970040;28;20477;-67
2021/06/26 10:52:16;;;;;;;7.90;7.40;;;26.00;94.30;;;;;;4958957;28;20604;-67
2021/06/26 10:54:57;;;;;;;8.47;7.77;;;25.90;94.20;;;;;;4955274;28;20559;-65
2021/06/26 10:57:25;;;;;;;7.53;7.10;;;25.70;93.50;;;;;;4954428;28;20475;-66
2021/06/26 10:59:56;;;;;;;8.67;8.10;;;25.60;93.90;;;;;;4964236;28;20467;-66
2021/06/26 11:02:22;;;;;;;8.03;7.50;;;25.50;92.60;;;;;;4970290;28;20496;-68
2021/06/26 11:04:50;;;;;;;7.40;7.00;;;25.40;92.50;;;;;;4961278;28;20464;-68
2021/06/26 11:07:19;;;;;;;7.50;6.97;;;25.40;93.00;;;;;;4973387;28;20471;-69
2021/06/26 11:09:47;;;;;;;8.10;7.40;;;25.50;93.70;;;;;;4963225;28;20557;-69
2021/06/26 11:12:16;;;;;;;7.90;7.30;;;25.50;94.30;;;;;;4976568;28;20498;-69
2021/06/26 11:14:51;;;;;;;9.00;8.40;;;25.30;94.40;;;;;;4966815;28;20491;-70
2021/06/26 11:17:21;;;;;;;9.53;8.53;;;25.20;94.40;;;;;;4969159;28;20503;-69
2021/06/26 11:19:48;;;;;;;8.40;8.00;;;25.30;93.80;;;;;;4961248;28;20499;-65
2021/06/26 11:22:18;;;;;;;9.23;8.43;;;25.40;94.10;;;;;;4970528;28;20534;-69
2021/06/26 11:24:46;;;;;;;8.77;8.10;;;25.60;93.70;;;;;;4975878;28;20464;-65
2021/06/26 11:27:18;;;;;;;9.33;8.53;;;25.90;94.10;;;;;;4958223;28;20453;-66
2021/06/26 11:29:47;;;;;;;10.27;9.00;;;26.10;92.80;;;;;;4976555;28;20490;-68
2021/06/26 11:32:23;;;;;;;8.33;7.83;;;26.20;92.90;;;;;;4965986;28;20477;-67
2021/06/26 11:34:54;;;;;;;7.50;6.90;;;26.10;92.60;;;;;;4963520;28;20489;-67
2021/06/26 11:37:23;;;;;;;6.53;6.23;;;26.10;92.00;;;;;;4956622;28;20986;-68
2021/06/26 11:39:50;;;;;;;6.97;6.57;;;26.30;92.60;;;;;;4958488;28;20977;-66
2021/06/26 11:42:18;;;;;;;5.47;5.27;;;26.60;90.40;;;;;;4960549;28;20531;-68
2021/06/26 11:44:46;;;;;;;6.50;6.20;;;26.90;90.70;;;;;;4956042;29;20471;-67
2021/06/26 11:47:14;;;;;;;7.20;6.73;;;27.00;90.50;;;;;;4955966;29;20476;-67
2021/06/26 11:49:43;;;;;;;6.90;6.50;;;26.80;90.90;;;;;;4971959;28;20475;-68
2021/06/26 11:52:12;;;;;;;5.13;4.93;;;26.80;91.10;;;;;;4962308;28;20481;-65
2021/06/26 11:54:40;;;;;;;6.50;6.20;;;26.90;90.80;;;;;;4956378;28;20523;-67
2021/06/26 11:57:12;;;;;;;5.53;5.23;;;27.00;90.50;;;;;;4968871;28;20506;-67
2021/06/26 11:59:40;;;;;;;6.87;6.40;;;26.90;91.30;;;;;;4974904;28;20474;-68
2021/06/26 12:02:07;;;;;;;7.23;6.83;;;26.80;91.70;;;;;;4971216;28;20517;-66
2021/06/26 12:04:34;;;;;;;8.47;7.97;;;26.80;92.20;;;;;;4975487;28;20493;-67
2021/06/26 12:07:00;;;;;;;6.97;6.67;;;26.80;91.50;;;;;;4963470;28;20464;-67
2021/06/26 12:09:27;;;;;;;7.90;7.40;;;27.00;92.10;;;;;;4958670;28;20506;-66
2021/06/26 12:11:58;;;;;;;7.80;7.17;;;27.00;91.90;;;;;;4958715;28;20589;-66
2021/06/26 12:14:27;;;;;;;7.00;6.70;;;26.90;92.00;;;;;;4958821;28;20549;-66
2021/06/26 12:17:02;;;;;;;9.20;8.60;;;26.30;92.60;;;;;;4956637;28;20485;-66
2021/06/26 12:19:30;;;;;;;8.93;8.43;;;26.00;93.20;;;;;;4959467;28;20478;-66
2021/06/26 12:21:57;;;;;;;7.07;6.67;;;26.40;93.30;;;;;;4974758;28;20486;-71
2021/06/26 12:24:28;;;;;;;10.10;9.47;;;26.70;93.40;;;;;;4973191;28;20485;-66
2021/06/26 12:27:12;;;;;;;9.87;9.17;;;26.90;92.20;;;;;;4958375;28;20494;-65
2021/06/26 12:29:42;;;;;;;11.37;10.57;;;26.70;92.70;;;;;;4956778;28;20881;-65
2021/06/26 12:32:09;;;;;;;9.83;9.20;;;26.60;92.70;;;;;;4965478;28;20506;-65
2021/06/26 12:34:46;;;;;;;9.97;9.27;;;26.50;92.90;;;;;;4976445;28;20617;-65
2021/06/26 12:37:13;;;;;;;9.20;8.50;;;26.40;93.80;;;;;;4967665;28;20464;-65
2021/06/26 12:39:40;;;;;;;9.10;8.50;;;26.40;93.80;;;;;;4960069;28;20466;-66
2021/06/26 12:42:11;;;;;;;9.47;8.80;;;26.20;93.40;;;;;;4949206;28;20572;-66
2021/06/26 12:44:41;;;;;;;9.43;8.93;;;26.30;93.30;;;;;;4954229;28;20471;-65
2021/06/26 12:47:08;;;;;;;9.57;8.77;;;26.40;92.80;;;;;;4957796;28;20484;-66
2021/06/26 12:49:36;;;;;;;9.67;8.77;;;26.50;92.90;;;;;;4958445;28;20453;-65
2021/06/26 12:52:12;;;;;;;8.00;7.50;;;26.50;93.20;;;;;;4967612;28;20546;-67
2021/06/26 12:54:49;;;;;;;9.30;8.80;;;26.70;92.70;;;;;;4962143;28;20454;-64
2021/06/26 12:57:18;;;;;;;8.00;7.50;;;26.60;92.90;;;;;;4953550;28;20228;-64
2021/06/26 12:59:45;;;;;;;6.63;6.33;;;26.80;93.50;;;;;;4960624;28;20463;-64
2021/06/26 13:02:12;;;;;;;8.40;7.77;;;27.00;92.20;;;;;;4967519;28;20514;-64
2021/06/26 13:04:43;;;;;;;7.13;6.67;;;26.80;91.60;;;;;;4959616;28;20483;-64
2021/06/26 13:07:19;;;;;;;8.20;7.70;;;26.80;91.70;;;;;;4961980;28;20461;-65
2021/06/26 13:09:47;;;;;;;7.40;7.00;;;26.60;91.90;;;;;;4971591;28;20472;-65
2021/06/26 13:12:17;;;;;;;7.87;7.47;;;26.80;92.20;;;;;;4973119;28;20578;-66
2021/06/26 13:14:47;;;;;;;7.57;7.17;;;26.90;92.20;;;;;;4973833;28;20495;-65
2021/06/26 13:17:16;;;;;;;7.47;7.03;;;27.10;91.80;;;;;;4961047;28;20457;-64
2021/06/26 13:19:42;;;;;;;7.70;7.30;;;27.20;91.70;;;;;;4953695;29;20952;-65
2021/06/26 13:22:09;;;;;;;9.43;8.90;;;27.10;91.50;;;;;;4953990;29;20533;-66
2021/06/26 13:24:36;;;;;;;8.33;7.57;;;26.90;92.00;;;;;;4953960;28;20968;-65
2021/06/26 13:27:04;;;;;;;9.57;8.87;;;26.90;92.50;;;;;;4964997;28;20464;-66
2021/06/26 13:29:31;;;;;;;9.90;9.30;;;26.60;92.00;;;;;;4973870;28;20496;-65
2021/06/26 13:32:00;;;;;;;9.20;8.60;;;26.70;92.60;;;;;;4973592;28;20830;-65
2021/06/26 13:34:27;;;;;;;10.37;9.57;;;26.80;93.00;;;;;;4973662;28;20460;-65
2021/06/26 13:36:53;;;;;;;10.70;10.00;;;27.00;92.60;;;;;;4963668;28;20461;-65
2021/06/26 13:39:20;;;;;;;10.23;9.43;;;26.90;92.40;;;;;;4953907;28;20833;-66
2021/06/26 13:41:47;;;;;;;12.30;11.40;;;26.90;92.90;;;;;;4953423;29;20495;-65
2021/06/26 13:44:13;;;;;;;11.10;10.40;;;26.80;92.20;;;;;;4954196;29;20465;-65
2021/06/26 13:46:41;;;;;;;12.70;11.60;;;26.50;92.70;;;;;;4961672;28;20472;-65
2021/06/26 13:49:09;;;;;;;11.80;11.10;;;26.20;93.50;;;;;;4973917;28;20528;-64
2021/06/26 13:51:35;;;;;;;12.57;11.70;;;26.10;94.30;;;;;;4973378;28;20487;-65
2021/06/26 13:54:02;;;;;;;12.13;11.30;;;26.00;94.50;;;;;;4972660;28;20479;-65
2021/06/26 13:56:29;;;;;;;12.57;11.77;;;26.00;94.60;;;;;;4967053;28;20499;-66
2021/06/26 13:58:55;;;;;;;13.77;12.77;;;26.00;94.60;;;;;;4954155;29;20801;-66
2021/06/26 14:01:23;;;;;;;12.20;11.30;;;26.30;94.10;;;;;;4953950;29;20567;-66
2021/06/26 14:03:50;;;;;;;11.00;10.40;;;26.30;94.30;;;;;;4954041;29;20531;-65
2021/06/26 14:06:19;;;;;;;13.33;12.43;;;26.30;93.70;;;;;;4957621;28;20460;-66
2021/06/26 14:08:47;;;;;;;11.57;10.77;;;26.20;93.80;;;;;;4972613;28;20475;-66
2021/06/26 14:11:15;;;;;;;10.57;9.83;;;26.30;94.20;;;;;;4934630;28;20994;-66
2021/06/26 14:13:42;;;;;;;11.00;10.30;;;26.50;93.20;;;;;;4934554;29;20475;-66
2021/06/26 14:16:09;;;;;;;9.33;8.73;;;26.50;92.70;;;;;;4944064;28;20498;-67
2021/06/26 14:18:36;;;;;;;10.60;9.90;;;26.40;92.30;;;;;;4959674;28;20530;-64
2021/06/26 14:21:04;;;;;;;10.17;9.57;;;26.30;93.00;;;;;;4959567;28;20996;-64
2021/06/26 14:23:33;;;;;;;8.43;8.00;;;26.50;93.60;;;;;;4953042;29;20476;-65
2021/06/26 14:26:00;;;;;;;7.07;6.70;;;26.70;92.50;;;;;;4960326;28;20457;-64
2021/06/26 14:28:27;;;;;;;9.73;9.13;;;26.80;91.70;;;;;;4971874;28;20495;-67
2021/06/26 14:30:53;;;;;;;10.80;10.20;;;27.00;91.60;;;;;;4966782;28;20562;-67
2021/06/26 14:33:20;;;;;;;11.13;10.33;;;26.90;91.70;;;;;;4972830;28;20490;-67
2021/06/26 14:35:47;;;;;;;11.27;10.33;;;26.90;92.00;;;;;;4967615;28;20484;-68
2021/06/26 14:38:14;;;;;;;12.20;11.40;;;26.90;91.90;;;;;;4959045;28;20826;-66
2021/06/26 14:40:42;;;;;;;11.83;11.03;;;27.10;92.40;;;;;;4961090;28;20475;-66
2021/06/26 14:43:09;;;;;;;12.67;11.87;;;27.20;92.30;;;;;;4949823;28;20476;-67
2021/06/26 14:45:36;;;;;;;15.20;14.13;;;27.30;92.60;;;;;;4959842;28;20452;-66
2021/06/26 14:48:03;;;;;;;12.83;11.93;;;27.20;92.10;;;;;;4957365;29;20486;-66
2021/06/26 14:50:30;;;;;;;13.27;12.10;;;27.30;92.00;;;;;;4971605;28;20522;-66
2021/06/26 14:52:56;;;;;;;12.20;11.37;;;27.30;91.70;;;;;;4969489;28;20464;-67
2021/06/26 14:55:23;;;;;;;12.17;11.37;;;27.30;91.80;;;;;;4973432;28;20479;-66
2021/06/26 14:57:51;;;;;;;10.93;10.17;;;27.20;92.00;;;;;;4958037;28;20464;-67
2021/06/26 15:00:19;;;;;;;10.27;9.67;;;27.20;91.50;;;;;;4961099;28;20483;-67
2021/06/26 15:02:45;;;;;;;10.60;10.00;;;27.30;91.30;;;;;;4961118;28;20470;-67
2021/06/26 15:05:12;;;;;;;11.53;10.80;;;27.50;91.30;;;;;;4966675;28;20479;-68
2021/06/26 15:07:39;;;;;;;12.40;11.50;;;27.70;92.00;;;;;;4975946;28;20459;-69
2021/06/26 15:10:08;;;;;;;10.40;9.80;;;27.70;91.50;;;;;;4966388;28;20464;-68
2021/06/26 15:12:34;;;;;;;11.50;10.70;;;27.30;92.70;;;;;;4970943;28;20461;-68
2021/06/26 15:15:03;;;;;;;10.80;9.97;;;26.80;93.20;;;;;;4963929;28;20571;-67
2021/06/26 15:17:29;;;;;;;9.53;8.90;;;26.30;94.20;;;;;;4955976;28;20461;-65
2021/06/26 15:19:56;;;;;;;10.07;9.47;;;26.10;95.20;;;;;;4956311;28;20539;-68
2021/06/26 15:22:23;;;;;;;10.50;9.70;;;26.10;94.70;;;;;;4956371;29;20495;-65
2021/06/26 15:24:50;;;;;;;10.30;9.50;;;26.20;95.00;;;;;;4956034;28;20482;-65
2021/06/26 15:27:16;;;;;;;9.77;9.17;;;26.50;94.60;;;;;;4954706;29;20460;-65
2021/06/26 15:29:43;;;;;;;9.30;8.70;;;26.80;94.10;;;;;;4955838;28;20956;-65
2021/06/26 15:32:11;;;;;;;7.50;7.10;;;27.10;94.10;;;;;;4961326;28;20504;-65
2021/06/26 15:34:38;;;;;;;6.03;5.73;;;27.30;93.20;;;;;;4956183;28;20878;-66
2021/06/26 15:37:06;;;;;;;4.77;4.67;;;27.10;91.60;;;;;;4954538;29;20496;-67
2021/06/26 15:39:33;;;;;;;5.33;5.03;;;27.10;91.60;;;;;;4955231;28;20472;-67
2021/06/26 15:41:59;;;;;;;4.93;4.73;;;27.20;92.50;;;;;;4956628;28;20502;-67
2021/06/26 15:44:26;;;;;;;5.30;5.10;;;27.00;91.90;;;;;;4959887;28;20480;-66
2021/06/26 15:46:53;;;;;;;5.97;5.67;;;27.00;92.00;;;;;;4955772;28;20519;-67
2021/06/26 15:49:21;;;;;;;6.77;5.93;;;27.00;92.10;;;;;;4968607;28;20464;-67
2021/06/26 15:51:48;;;;;;;5.30;5.03;;;26.70;92.90;;;;;;4975196;28;20492;-67
2021/06/26 15:54:15;;;;;;;5.53;5.30;;;26.60;93.10;;;;;;4962922;28;20468;-67
2021/06/26 15:56:42;;;;;;;6.20;5.80;;;26.80;92.80;;;;;;4968844;28;20486;-67
2021/06/26 15:59:08;;;;;;;3.87;3.77;;;26.80;91.90;;;;;;4951596;28;20501;-66
2021/06/26 16:01:35;;;;;;;3.90;3.80;;;26.70;91.10;;;;;;4954249;28;21031;-64
2021/06/26 16:04:02;;;;;;;4.60;4.40;;;26.80;90.90;;;;;;4954717;28;20937;-67
2021/06/26 16:06:30;;;;;;;7.00;6.60;;;26.80;92.20;;;;;;4955800;28;20523;-66
2021/06/26 16:08:56;;;;;;;7.73;7.33;;;26.90;94.30;;;;;;4954451;28;20547;-65
2021/06/26 16:11:23;;;;;;;7.10;6.70;;;26.90;95.10;;;;;;4954881;28;20499;-67
2021/06/26 16:13:51;;;;;;;7.10;6.70;;;26.80;95.60;;;;;;4955267;28;20465;-67
2021/06/26 16:16:19;;;;;;;6.60;6.30;;;26.70;96.10;;;;;;4965869;28;20500;-67
2021/06/26 16:18:45;;;;;;;7.47;6.97;;;26.50;96.60;;;;;;4961608;28;20480;-65
2021/06/26 16:21:12;;;;;;;6.73;6.40;;;26.30;97.10;;;;;;4955545;29;20969;-67
2021/06/26 16:23:40;;;;;;;7.70;7.07;;;26.30;96.80;;;;;;4954376;28;20468;-69
2021/06/26 16:26:07;;;;;;;7.20;6.70;;;26.30;96.50;;;;;;4954669;28;20453;-67
2021/06/26 16:28:34;;;;;;;6.93;6.53;;;26.40;96.30;;;;;;4949579;28;20468;-68
2021/06/26 16:31:00;;;;;;;7.32;6.90;;;26.30;95.90;;;;;;4954899;28;20486;-68
2021/06/26 16:33:27;;;;;;;7.30;6.90;;;26.30;96.00;;;;;;4954968;28;20212;-68
2021/06/26 16:35:55;;;;;;;6.90;6.50;;;26.20;96.30;;;;;;4955436;28;20488;-67
2021/06/26 16:38:28;;;;;;;7.27;6.77;;;26.30;96.40;;;;;;4955260;28;20472;-67
2021/06/26 16:40:58;;;;;;;6.77;6.37;;;26.40;96.50;;;;;;4954200;28;20519;-67
2021/06/26 16:43:26;;;;;;;7.73;7.00;;;26.10;96.80;;;;;;4952624;28;20835;-65